Terminal Aerodrome Forecast
Issued by NWS

Home | Current Version | Previous Version | Graphics & Text | Print | Product List | Glossary On
Versions: 1 2 3 4 5 6 7 8 9 10 11 12 13 14 15 16 17 18
000
FTUS43 KMPX 211700
TAFAXN
TAF
KAXN 211735Z 2118/2218 16010KT 1/2SM FG OVC003
     FM212100 15012KT 1 1/2SM BR OVC005
     FM220300 13014KT 1/2SM -DZ FG OVC002
     FM221500 12012KT 1SM -RASN BR OVC005=

USA.gov is the U.S. government's official web portal to all federal, state and local government web resources and services.